sensor_id;sensor_type;location;lat;lon;timestamp;pressure;altitude;pressure_sealevel;temperature;humidity
36378;BME280;22402;42.746;23.606;2023-07-08T00:00:42;93727.91;;;17.83;100.00
36378;BME280;22402;42.746;23.606;2023-07-08T00:03:07;93726.94;;;17.75;100.00
36378;BME280;22402;42.746;23.606;2023-07-08T00:05:33;93733.78;;;17.70;100.00
36378;BME280;22402;42.746;23.606;2023-07-08T00:07:59;93740.41;;;17.66;100.00
36378;BME280;22402;42.746;23.606;2023-07-08T00:10:26;93738.94;;;17.63;100.00
36378;BME280;22402;42.746;23.606;2023-07-08T00:12:55;93727.59;;;17.63;100.00
36378;BME280;22402;42.746;23.606;2023-07-08T00:15:22;93728.94;;;17.59;100.00
36378;BME280;22402;42.746;23.606;2023-07-08T00:17:49;93726.69;;;17.56;100.00
36378;BME280;22402;42.746;23.606;2023-07-08T00:20:22;93715.78;;;17.59;100.00
36378;BME280;22402;42.746;23.606;2023-07-08T00:22:48;93715.84;;;17.50;100.00
36378;BME280;22402;42.746;23.606;2023-07-08T00:25:17;93708.09;;;17.49;100.00
36378;BME280;22402;42.746;23.606;2023-07-08T00:27:45;93707.66;;;17.45;100.00
36378;BME280;22402;42.746;23.606;2023-07-08T00:30:31;93712.00;;;17.38;100.00
36378;BME280;22402;42.746;23.606;2023-07-08T00:32:58;93707.25;;;17.34;100.00
36378;BME280;22402;42.746;23.606;2023-07-08T00:35:33;93702.34;;;17.30;100.00
36378;BME280;22402;42.746;23.606;2023-07-08T00:38:00;93699.44;;;17.25;100.00
36378;BME280;22402;42.746;23.606;2023-07-08T00:40:29;93703.41;;;17.21;100.00
36378;BME280;22402;42.746;23.606;2023-07-08T00:42:58;93694.06;;;17.19;100.00
36378;BME280;22402;42.746;23.606;2023-07-08T00:45:38;93697.25;;;17.14;100.00
36378;BME280;22402;42.746;23.606;2023-07-08T00:48:30;93693.84;;;17.05;100.00
36378;BME280;22402;42.746;23.606;2023-07-08T00:50:58;93698.19;;;16.98;100.00
36378;BME280;22402;42.746;23.606;2023-07-08T00:53:24;93691.13;;;16.99;100.00
36378;BME280;22402;42.746;23.606;2023-07-08T00:55:52;93698.72;;;16.94;100.00
36378;BME280;22402;42.746;23.606;2023-07-08T00:58:20;93693.16;;;16.89;100.00
36378;BME280;22402;42.746;23.606;2023-07-08T01:00:48;93694.06;;;16.81;100.00
36378;BME280;22402;42.746;23.606;2023-07-08T01:03:15;93689.25;;;16.84;100.00
36378;BME280;22402;42.746;23.606;2023-07-08T01:05:43;93691.41;;;16.81;100.00
36378;BME280;22402;42.746;23.606;2023-07-08T01:08:09;93688.28;;;16.77;100.00
36378;BME280;22402;42.746;23.606;2023-07-08T01:10:57;93687.19;;;16.72;100.00
36378;BME280;22402;42.746;23.606;2023-07-08T01:13:23;93681.25;;;16.70;100.00
36378;BME280;22402;42.746;23.606;2023-07-08T01:15:50;93684.25;;;16.67;100.00
36378;BME280;22402;42.746;23.606;2023-07-08T01:18:17;93673.72;;;16.67;100.00
36378;BME280;22402;42.746;23.606;2023-07-08T01:20:46;93677.50;;;16.64;100.00
36378;BME280;22402;42.746;23.606;2023-07-08T01:23:13;93674.59;;;16.59;100.00
36378;BME280;22402;42.746;23.606;2023-07-08T01:25:41;93678.03;;;16.59;100.00
36378;BME280;22402;42.746;23.606;2023-07-08T01:28:08;93683.00;;;16.54;100.00
36378;BME280;22402;42.746;23.606;2023-07-08T01:30:34;93686.81;;;16.52;100.00
36378;BME280;22402;42.746;23.606;2023-07-08T01:33:04;93680.72;;;16.51;100.00
36378;BME280;22402;42.746;23.606;2023-07-08T01:35:30;93682.25;;;16.46;100.00
36378;BME280;22402;42.746;23.606;2023-07-08T01:38:01;93686.69;;;16.45;100.00
36378;BME280;22402;42.746;23.606;2023-07-08T01:40:35;93678.50;;;16.40;100.00
36378;BME280;22402;42.746;23.606;2023-07-08T01:43:02;93676.03;;;16.38;100.00
36378;BME280;22402;42.746;23.606;2023-07-08T01:45:40;93677.22;;;16.36;100.00
36378;BME280;22402;42.746;23.606;2023-07-08T01:48:10;93679.84;;;16.36;100.00
36378;BME280;22402;42.746;23.606;2023-07-08T01:50:42;93676.03;;;16.38;100.00
36378;BME280;22402;42.746;23.606;2023-07-08T01:53:12;93682.47;;;16.36;100.00
36378;BME280;22402;42.746;23.606;2023-07-08T01:55:39;93679.19;;;16.34;100.00
36378;BME280;22402;42.746;23.606;2023-07-08T01:58:04;93676.72;;;16.32;100.00
36378;BME280;22402;42.746;23.606;2023-07-08T02:00:30;93679.19;;;16.34;100.00
36378;BME280;22402;42.746;23.606;2023-07-08T02:02:55;93673.47;;;16.30;100.00
36378;BME280;22402;42.746;23.606;2023-07-08T02:05:22;93669.38;;;16.28;100.00
36378;BME280;22402;42.746;23.606;2023-07-08T02:07:48;93674.50;;;16.21;100.00
36378;BME280;22402;42.746;23.606;2023-07-08T02:10:13;93672.38;;;16.16;100.00
36378;BME280;22402;42.746;23.606;2023-07-08T02:12:39;93663.19;;;16.12;100.00
36378;BME280;22402;42.746;23.606;2023-07-08T02:15:05;93666.19;;;16.09;100.00
36378;BME280;22402;42.746;23.606;2023-07-08T02:17:31;93669.31;;;16.05;100.00
36378;BME280;22402;42.746;23.606;2023-07-08T02:19:56;93675.72;;;16.02;100.00
36378;BME280;22402;42.746;23.606;2023-07-08T02:22:22;93673.63;;;15.98;100.00
36378;BME280;22402;42.746;23.606;2023-07-08T02:24:48;93673.13;;;15.94;100.00
36378;BME280;22402;42.746;23.606;2023-07-08T02:27:14;93677.56;;;15.93;100.00
36378;BME280;22402;42.746;23.606;2023-07-08T02:29:40;93683.66;;;15.94;100.00
36378;BME280;22402;42.746;23.606;2023-07-08T02:32:06;93696.78;;;15.94;100.00
36378;BME280;22402;42.746;23.606;2023-07-08T02:34:31;93693.69;;;15.90;100.00
36378;BME280;22402;42.746;23.606;2023-07-08T02:36:57;93704.38;;;15.89;100.00
36378;BME280;22402;42.746;23.606;2023-07-08T02:39:23;93705.38;;;15.88;100.00
36378;BME280;22402;42.746;23.606;2023-07-08T02:41:49;93708.19;;;15.86;100.00
36378;BME280;22402;42.746;23.606;2023-07-08T02:44:14;93708.50;;;15.83;100.00
36378;BME280;22402;42.746;23.606;2023-07-08T02:46:40;93720.84;;;15.83;100.00
36378;BME280;22402;42.746;23.606;2023-07-08T02:51:41;93725.44;;;15.81;100.00
36378;BME280;22402;42.746;23.606;2023-07-08T02:54:07;93723.63;;;15.81;100.00
36378;BME280;22402;42.746;23.606;2023-07-08T02:56:32;93728.22;;;15.79;100.00
36378;BME280;22402;42.746;23.606;2023-07-08T02:58:58;93721.34;;;15.78;100.00
36378;BME280;22402;42.746;23.606;2023-07-08T03:01:23;93727.06;;;15.82;100.00
36378;BME280;22402;42.746;23.606;2023-07-08T03:03:51;93727.56;;;15.85;100.00
36378;BME280;22402;42.746;23.606;2023-07-08T03:06:22;93721.47;;;15.85;100.00
36378;BME280;22402;42.746;23.606;2023-07-08T03:08:48;93716.72;;;15.88;100.00
36378;BME280;22402;42.746;23.606;2023-07-08T03:11:15;93726.91;;;15.91;100.00
36378;BME280;22402;42.746;23.606;2023-07-08T03:13:41;93728.19;;;15.95;100.00
36378;BME280;22402;42.746;23.606;2023-07-08T03:16:06;93717.81;;;15.94;100.00
36378;BME280;22402;42.746;23.606;2023-07-08T03:18:38;93716.50;;;15.98;100.00
36378;BME280;22402;42.746;23.606;2023-07-08T03:21:13;93725.03;;;16.00;100.00
36378;BME280;22402;42.746;23.606;2023-07-08T03:23:39;93717.81;;;16.02;100.00
36378;BME280;22402;42.746;23.606;2023-07-08T03:26:04;93714.81;;;16.05;100.00
36378;BME280;22402;42.746;23.606;2023-07-08T03:28:30;93717.13;;;16.08;100.00
36378;BME280;22402;42.746;23.606;2023-07-08T03:30:57;93721.41;;;16.09;100.00
36378;BME280;22402;42.746;23.606;2023-07-08T03:33:22;93720.41;;;16.10;100.00
36378;BME280;22402;42.746;23.606;2023-07-08T03:35:49;93714.81;;;16.13;100.00
36378;BME280;22402;42.746;23.606;2023-07-08T03:38:15;93724.97;;;16.16;100.00
36378;BME280;22402;42.746;23.606;2023-07-08T03:40:40;93722.50;;;16.15;100.00
36378;BME280;22402;42.746;23.606;2023-07-08T03:43:06;93725.78;;;16.17;100.00
36378;BME280;22402;42.746;23.606;2023-07-08T03:45:31;93737.78;;;16.20;100.00
36378;BME280;22402;42.746;23.606;2023-07-08T03:47:57;93730.56;;;16.22;100.00
36378;BME280;22402;42.746;23.606;2023-07-08T03:50:24;93730.34;;;16.31;100.00
36378;BME280;22402;42.746;23.606;2023-07-08T03:52:53;93729.84;;;16.36;100.00
36378;BME280;22402;42.746;23.606;2023-07-08T03:55:19;93729.84;;;16.36;100.00
36378;BME280;22402;42.746;23.606;2023-07-08T03:57:45;93722.56;;;16.38;100.00
36378;BME280;22402;42.746;23.606;2023-07-08T04:00:11;93727.47;;;16.41;100.00
36378;BME280;22402;42.746;23.606;2023-07-08T04:02:44;93715.00;;;16.43;100.00
36378;BME280;22402;42.746;23.606;2023-07-08T04:05:14;93719.56;;;16.49;100.00
36378;BME280;22402;42.746;23.606;2023-07-08T04:07:40;93717.56;;;16.51;100.00
36378;BME280;22402;42.746;23.606;2023-07-08T04:10:06;93720.69;;;16.55;100.00
36378;BME280;22402;42.746;23.606;2023-07-08T04:12:32;93720.97;;;16.60;100.00
36378;BME280;22402;42.746;23.606;2023-07-08T04:14:58;93719.78;;;16.62;100.00
36378;BME280;22402;42.746;23.606;2023-07-08T04:17:23;93715.84;;;16.67;100.00
36378;BME280;22402;42.746;23.606;2023-07-08T04:19:49;93708.25;;;16.72;100.00
36378;BME280;22402;42.746;23.606;2023-07-08T04:22:15;93703.28;;;16.77;100.00
36378;BME280;22402;42.746;23.606;2023-07-08T04:24:41;93707.22;;;16.81;100.00
36378;BME280;22402;42.746;23.606;2023-07-08T04:27:13;93704.22;;;16.84;100.00
36378;BME280;22402;42.746;23.606;2023-07-08T04:29:40;93706.50;;;16.87;100.00
36378;BME280;22402;42.746;23.606;2023-07-08T04:32:06;93708.44;;;16.93;100.00
36378;BME280;22402;42.746;23.606;2023-07-08T04:34:32;93707.91;;;16.98;100.00
36378;BME280;22402;42.746;23.606;2023-07-08T04:36:58;93703.75;;;17.03;100.00
36378;BME280;22402;42.746;23.606;2023-07-08T04:39:23;93708.59;;;17.15;100.00
36378;BME280;22402;42.746;23.606;2023-07-08T04:41:49;93705.09;;;17.22;100.00
36378;BME280;22402;42.746;23.606;2023-07-08T04:44:14;93709.72;;;17.35;100.00
36378;BME280;22402;42.746;23.606;2023-07-08T04:46:49;93715.56;;;17.45;100.00
36378;BME280;22402;42.746;23.606;2023-07-08T04:49:17;93717.75;;;17.57;100.00
36378;BME280;22402;42.746;23.606;2023-07-08T04:51:43;93718.66;;;17.64;100.00
36378;BME280;22402;42.746;23.606;2023-07-08T04:54:09;93714.97;;;17.73;100.00
36378;BME280;22402;42.746;23.606;2023-07-08T04:56:39;93702.25;;;17.76;100.00
36378;BME280;22402;42.746;23.606;2023-07-08T04:59:07;93710.09;;;17.85;100.00
36378;BME280;22402;42.746;23.606;2023-07-08T05:01:33;93725.63;;;17.94;100.00
36378;BME280;22402;42.746;23.606;2023-07-08T05:03:59;93725.19;;;18.06;100.00
36378;BME280;22402;42.746;23.606;2023-07-08T05:06:25;93729.09;;;18.10;100.00
36378;BME280;22402;42.746;23.606;2023-07-08T05:08:50;93729.16;;;18.16;100.00
36378;BME280;22402;42.746;23.606;2023-07-08T05:11:16;93735.81;;;18.27;100.00
36378;BME280;22402;42.746;23.606;2023-07-08T05:13:41;93739.25;;;18.42;100.00
36378;BME280;22402;42.746;23.606;2023-07-08T05:16:07;93741.78;;;18.51;100.00
36378;BME280;22402;42.746;23.606;2023-07-08T05:18:32;93746.47;;;18.70;100.00
36378;BME280;22402;42.746;23.606;2023-07-08T05:20:59;93748.91;;;18.86;100.00
36378;BME280;22402;42.746;23.606;2023-07-08T05:23:25;93747.16;;;18.94;100.00
36378;BME280;22402;42.746;23.606;2023-07-08T05:25:50;93752.13;;;19.03;100.00
36378;BME280;22402;42.746;23.606;2023-07-08T05:28:16;93748.97;;;19.15;100.00
36378;BME280;22402;42.746;23.606;2023-07-08T05:30:42;93755.69;;;19.39;100.00
36378;BME280;22402;42.746;23.606;2023-07-08T05:33:08;93759.06;;;19.54;100.00
36378;BME280;22402;42.746;23.606;2023-07-08T05:35:34;93756.25;;;19.55;100.00
36378;BME280;22402;42.746;23.606;2023-07-08T05:37:59;93752.84;;;19.62;100.00
36378;BME280;22402;42.746;23.606;2023-07-08T05:40:25;93756.06;;;19.78;100.00
36378;BME280;22402;42.746;23.606;2023-07-08T05:42:50;93755.31;;;19.91;100.00
36378;BME280;22402;42.746;23.606;2023-07-08T05:45:16;93752.19;;;20.09;100.00
36378;BME280;22402;42.746;23.606;2023-07-08T05:47:41;93762.91;;;20.36;100.00
36378;BME280;22402;42.746;23.606;2023-07-08T05:50:07;93769.00;;;20.64;100.00
36378;BME280;22402;42.746;23.606;2023-07-08T05:52:33;93771.50;;;20.86;100.00
36378;BME280;22402;42.746;23.606;2023-07-08T05:54:58;93772.16;;;21.01;100.00
36378;BME280;22402;42.746;23.606;2023-07-08T05:57:24;93768.13;;;21.32;100.00
36378;BME280;22402;42.746;23.606;2023-07-08T05:59:49;93771.06;;;21.64;100.00
36378;BME280;22402;42.746;23.606;2023-07-08T06:02:16;93772.50;;;21.73;100.00
36378;BME280;22402;42.746;23.606;2023-07-08T06:04:42;93775.53;;;21.76;100.00
36378;BME280;22402;42.746;23.606;2023-07-08T06:07:08;93774.31;;;21.92;100.00
36378;BME280;22402;42.746;23.606;2023-07-08T06:09:34;93778.59;;;22.13;100.00
36378;BME280;22402;42.746;23.606;2023-07-08T06:11:59;93776.75;;;22.27;100.00
36378;BME280;22402;42.746;23.606;2023-07-08T06:14:26;93777.13;;;22.44;100.00
36378;BME280;22402;42.746;23.606;2023-07-08T06:16:52;93784.41;;;22.62;98.94
36378;BME280;22402;42.746;23.606;2023-07-08T06:19:17;93768.59;;;22.80;95.80
36378;BME280;22402;42.746;23.606;2023-07-08T06:21:43;93775.69;;;22.93;93.43
36378;BME280;22402;42.746;23.606;2023-07-08T06:24:09;93774.03;;;23.05;93.07
36378;BME280;22402;42.746;23.606;2023-07-08T06:26:34;93772.72;;;23.21;92.56
36378;BME280;22402;42.746;23.606;2023-07-08T06:29:00;93767.50;;;23.39;91.40
36378;BME280;22402;42.746;23.606;2023-07-08T06:31:25;93772.25;;;23.62;89.53
36378;BME280;22402;42.746;23.606;2023-07-08T06:33:51;93777.78;;;23.93;87.74
36378;BME280;22402;42.746;23.606;2023-07-08T06:36:17;93774.28;;;24.17;86.21
36378;BME280;22402;42.746;23.606;2023-07-08T06:38:42;93778.59;;;24.37;85.49
36378;BME280;22402;42.746;23.606;2023-07-08T06:41:08;93779.81;;;24.59;84.25
36378;BME280;22402;42.746;23.606;2023-07-08T06:43:33;93778.34;;;24.82;82.55
36378;BME280;22402;42.746;23.606;2023-07-08T06:45:59;93782.16;;;25.04;82.07
36378;BME280;22402;42.746;23.606;2023-07-08T06:48:24;93780.56;;;25.33;80.97
36378;BME280;22402;42.746;23.606;2023-07-08T06:50:50;93774.13;;;25.53;78.44
36378;BME280;22402;42.746;23.606;2023-07-08T06:53:16;93773.56;;;25.62;76.69
36378;BME280;22402;42.746;23.606;2023-07-08T06:55:46;93764.50;;;25.63;76.70
36378;BME280;22402;42.746;23.606;2023-07-08T06:58:12;93776.84;;;25.64;76.65
36378;BME280;22402;42.746;23.606;2023-07-08T07:00:38;93768.94;;;25.69;76.60
36378;BME280;22402;42.746;23.606;2023-07-08T07:03:03;93769.19;;;25.80;75.64
36378;BME280;22402;42.746;23.606;2023-07-08T07:05:29;93770.66;;;25.94;74.72
36378;BME280;22402;42.746;23.606;2023-07-08T07:07:54;93773.34;;;26.06;74.30
36378;BME280;22402;42.746;23.606;2023-07-08T07:10:20;93768.56;;;26.20;73.77
36378;BME280;22402;42.746;23.606;2023-07-08T07:12:45;93782.03;;;26.48;72.82
36378;BME280;22402;42.746;23.606;2023-07-08T07:15:11;93774.00;;;26.84;72.28
36378;BME280;22402;42.746;23.606;2023-07-08T07:17:37;93783.47;;;27.15;71.00
36378;BME280;22402;42.746;23.606;2023-07-08T07:20:03;93800.66;;;27.47;70.67
36378;BME280;22402;42.746;23.606;2023-07-08T07:22:30;93794.03;;;27.79;69.64
36378;BME280;22402;42.746;23.606;2023-07-08T07:24:56;93793.81;;;27.97;68.92
36378;BME280;22402;42.746;23.606;2023-07-08T07:27:21;93800.78;;;28.15;68.53
36378;BME280;22402;42.746;23.606;2023-07-08T07:29:49;93792.56;;;28.22;67.57
36378;BME280;22402;42.746;23.606;2023-07-08T07:32:17;93801.50;;;28.27;66.38
36378;BME280;22402;42.746;23.606;2023-07-08T07:34:46;93798.34;;;28.30;65.97
36378;BME280;22402;42.746;23.606;2023-07-08T07:37:13;93796.72;;;28.29;65.43
36378;BME280;22402;42.746;23.606;2023-07-08T07:39:40;93795.16;;;28.33;65.47
36378;BME280;22402;42.746;23.606;2023-07-08T07:42:06;93795.34;;;28.44;65.20
36378;BME280;22402;42.746;23.606;2023-07-08T07:44:31;93791.75;;;28.55;65.21
36378;BME280;22402;42.746;23.606;2023-07-08T07:47:01;93792.28;;;28.74;64.56
36378;BME280;22402;42.746;23.606;2023-07-08T07:49:26;93802.47;;;28.94;64.25
36378;BME280;22402;42.746;23.606;2023-07-08T07:51:52;93801.88;;;29.08;63.17
36378;BME280;22402;42.746;23.606;2023-07-08T07:54:17;93801.25;;;29.23;62.29
36378;BME280;22402;42.746;23.606;2023-07-08T07:56:43;93789.31;;;29.36;61.46
36378;BME280;22402;42.746;23.606;2023-07-08T07:59:09;93778.47;;;29.53;61.22
36378;BME280;22402;42.746;23.606;2023-07-08T08:01:35;93779.84;;;29.78;60.95
36378;BME280;22402;42.746;23.606;2023-07-08T08:04:00;93786.44;;;29.97;60.13
36378;BME280;22402;42.746;23.606;2023-07-08T08:06:26;93776.94;;;30.16;59.26
36378;BME280;22402;42.746;23.606;2023-07-08T08:08:51;93775.00;;;30.44;58.32
36378;BME280;22402;42.746;23.606;2023-07-08T08:11:17;93785.63;;;30.66;57.66
36378;BME280;22402;42.746;23.606;2023-07-08T08:13:42;93791.09;;;30.81;56.81
36378;BME280;22402;42.746;23.606;2023-07-08T08:16:08;93782.56;;;30.95;56.04
36378;BME280;22402;42.746;23.606;2023-07-08T08:18:34;93782.41;;;31.22;55.83
36378;BME280;22402;42.746;23.606;2023-07-08T08:21:00;93782.00;;;31.50;54.91
36378;BME280;22402;42.746;23.606;2023-07-08T08:23:25;93792.28;;;31.74;54.09
36378;BME280;22402;42.746;23.606;2023-07-08T08:25:51;93792.81;;;31.76;53.68
36378;BME280;22402;42.746;23.606;2023-07-08T08:28:17;93779.88;;;31.88;53.44
36378;BME280;22402;42.746;23.606;2023-07-08T08:30:47;93784.25;;;32.05;52.56
36378;BME280;22402;42.746;23.606;2023-07-08T08:33:12;93797.19;;;32.23;51.74
36378;BME280;22402;42.746;23.606;2023-07-08T08:35:38;93796.13;;;32.55;51.69
36378;BME280;22402;42.746;23.606;2023-07-08T08:38:03;93791.72;;;32.95;51.24
36378;BME280;22402;42.746;23.606;2023-07-08T08:40:31;93782.09;;;33.43;50.36
36378;BME280;22402;42.746;23.606;2023-07-08T08:43:01;93788.03;;;33.55;48.71
36378;BME280;22402;42.746;23.606;2023-07-08T08:45:29;93787.81;;;33.31;49.45
36378;BME280;22402;42.746;23.606;2023-07-08T08:48:03;93783.00;;;33.23;49.41
36378;BME280;22402;42.746;23.606;2023-07-08T08:50:32;93787.31;;;33.29;49.23
36378;BME280;22402;42.746;23.606;2023-07-08T08:53:01;93778.84;;;33.51;49.31
36378;BME280;22402;42.746;23.606;2023-07-08T08:55:28;93782.19;;;33.83;48.52
36378;BME280;22402;42.746;23.606;2023-07-08T08:58:23;93777.66;;;34.12;47.20
36378;BME280;22402;42.746;23.606;2023-07-08T09:00:58;93772.91;;;34.33;46.89
36378;BME280;22402;42.746;23.606;2023-07-08T09:03:37;93779.47;;;34.56;46.18
36378;BME280;22402;42.746;23.606;2023-07-08T09:08:42;93778.63;;;34.85;44.95
36378;BME280;22402;42.746;23.606;2023-07-08T09:13:51;93781.56;;;35.18;44.88
36378;BME280;22402;42.746;23.606;2023-07-08T09:19:30;93777.69;;;34.70;44.91
36378;BME280;22402;42.746;23.606;2023-07-08T09:22:38;93776.84;;;35.04;44.50
36378;BME280;22402;42.746;23.606;2023-07-08T09:24:58;93754.56;;;35.50;44.17
36378;BME280;22402;42.746;23.606;2023-07-08T09:27:25;93766.78;;;35.72;43.70
36378;BME280;22402;42.746;23.606;2023-07-08T09:29:50;93767.50;;;35.77;43.77
36378;BME280;22402;42.746;23.606;2023-07-08T09:32:22;93773.88;;;35.87;42.73
36378;BME280;22402;42.746;23.606;2023-07-08T09:34:52;93758.13;;;36.08;41.93
36378;BME280;22402;42.746;23.606;2023-07-08T09:37:32;93765.06;;;36.14;41.81
36378;BME280;22402;42.746;23.606;2023-07-08T09:40:14;93762.53;;;35.85;41.68
36378;BME280;22402;42.746;23.606;2023-07-08T09:42:42;93757.91;;;35.66;41.84
36378;BME280;22402;42.746;23.606;2023-07-08T09:45:13;93747.88;;;35.24;42.83
36378;BME280;22402;42.746;23.606;2023-07-08T09:47:39;93752.53;;;34.70;44.09
36378;BME280;22402;42.746;23.606;2023-07-08T09:50:27;93741.88;;;34.20;43.83
36378;BME280;22402;42.746;23.606;2023-07-08T09:52:55;93740.63;;;34.02;44.81
36378;BME280;22402;42.746;23.606;2023-07-08T09:55:30;93741.94;;;34.15;45.30
36378;BME280;22402;42.746;23.606;2023-07-08T09:57:58;93736.28;;;33.72;45.96
36378;BME280;22402;42.746;23.606;2023-07-08T10:00:33;93739.13;;;32.82;48.00
36378;BME280;22402;42.746;23.606;2023-07-08T10:03:03;93743.47;;;32.73;48.87
36378;BME280;22402;42.746;23.606;2023-07-08T10:05:33;93734.78;;;33.51;46.97
36378;BME280;22402;42.746;23.606;2023-07-08T10:08:02;93733.53;;;34.46;44.83
36378;BME280;22402;42.746;23.606;2023-07-08T10:10:34;93734.06;;;35.44;42.76
36378;BME280;22402;42.746;23.606;2023-07-08T10:13:04;93742.44;;;35.86;42.22
36378;BME280;22402;42.746;23.606;2023-07-08T10:15:40;93740.34;;;35.96;41.71
36378;BME280;22402;42.746;23.606;2023-07-08T10:18:14;93736.00;;;36.33;40.56
36378;BME280;22402;42.746;23.606;2023-07-08T10:23:34;93741.94;;;36.68;40.16
36378;BME280;22402;42.746;23.606;2023-07-08T10:26:19;93736.84;;;37.08;39.84
36378;BME280;22402;42.746;23.606;2023-07-08T10:31:31;93736.91;;;37.58;38.95
36378;BME280;22402;42.746;23.606;2023-07-08T10:36:49;93737.50;;;37.55;38.01
36378;BME280;22402;42.746;23.606;2023-07-08T10:41:54;93736.19;;;38.02;37.02
36378;BME280;22402;42.746;23.606;2023-07-08T10:44:30;93722.44;;;38.52;36.22
36378;BME280;22402;42.746;23.606;2023-07-08T11:00:43;93722.19;;;38.71;35.66
36378;BME280;22402;42.746;23.606;2023-07-08T11:06:14;93713.56;;;39.09;34.50
36378;BME280;22402;42.746;23.606;2023-07-08T11:11:15;93709.84;;;39.05;34.38
36378;BME280;22402;42.746;23.606;2023-07-08T11:13:53;93714.28;;;39.41;33.81
36378;BME280;22402;42.746;23.606;2023-07-08T11:19:15;93698.94;;;39.97;32.33
36378;BME280;22402;42.746;23.606;2023-07-08T11:21:47;93693.63;;;40.09;32.63
36378;BME280;22402;42.746;23.606;2023-07-08T11:24:32;93694.66;;;40.61;31.43
36378;BME280;22402;42.746;23.606;2023-07-08T11:27:09;93699.03;;;40.53;31.39
36378;BME280;22402;42.746;23.606;2023-07-08T11:29:51;93699.28;;;39.12;32.46
36378;BME280;22402;42.746;23.606;2023-07-08T11:32:22;93691.69;;;38.07;33.88
36378;BME280;22402;42.746;23.606;2023-07-08T11:34:50;93684.56;;;38.42;33.74
36378;BME280;22402;42.746;23.606;2023-07-08T11:37:18;93699.53;;;38.93;33.38
36378;BME280;22402;42.746;23.606;2023-07-08T11:39:46;93685.56;;;39.35;33.11
36378;BME280;22402;42.746;23.606;2023-07-08T11:42:23;93691.44;;;38.71;34.06
36378;BME280;22402;42.746;23.606;2023-07-08T11:44:53;93691.09;;;38.72;33.84
36378;BME280;22402;42.746;23.606;2023-07-08T11:47:39;93694.56;;;39.70;32.84
36378;BME280;22402;42.746;23.606;2023-07-08T11:50:29;93695.03;;;40.16;32.01
36378;BME280;22402;42.746;23.606;2023-07-08T11:53:03;93690.22;;;39.43;33.16
36378;BME280;22402;42.746;23.606;2023-07-08T11:55:37;93694.63;;;39.13;32.84
36378;BME280;22402;42.746;23.606;2023-07-08T11:58:08;93681.41;;;38.26;34.21
36378;BME280;22402;42.746;23.606;2023-07-08T12:00:34;93685.19;;;38.39;33.37
36378;BME280;22402;42.746;23.606;2023-07-08T12:03:17;93687.88;;;39.02;33.06
36378;BME280;22402;42.746;23.606;2023-07-08T12:05:43;93685.34;;;39.14;32.86
36378;BME280;22402;42.746;23.606;2023-07-08T12:08:17;93681.06;;;39.30;32.75
36378;BME280;22402;42.746;23.606;2023-07-08T12:10:50;93677.09;;;39.80;31.89
36378;BME280;22402;42.746;23.606;2023-07-08T12:13:22;93677.88;;;40.06;31.64
36378;BME280;22402;42.746;23.606;2023-07-08T12:15:48;93672.09;;;39.64;32.48
36378;BME280;22402;42.746;23.606;2023-07-08T12:18:15;93671.69;;;39.05;32.66
36378;BME280;22402;42.746;23.606;2023-07-08T12:20:44;93673.50;;;39.18;32.47
36378;BME280;22402;42.746;23.606;2023-07-08T12:23:13;93667.00;;;39.72;32.71
36378;BME280;22402;42.746;23.606;2023-07-08T12:25:39;93667.81;;;39.81;31.57
36378;BME280;22402;42.746;23.606;2023-07-08T12:28:05;93669.25;;;39.87;31.86
36378;BME280;22402;42.746;23.606;2023-07-08T12:30:31;93653.16;;;40.03;31.86
36378;BME280;22402;42.746;23.606;2023-07-08T12:32:59;93663.69;;;40.48;31.03
36378;BME280;22402;42.746;23.606;2023-07-08T12:35:29;93666.94;;;40.88;30.06
36378;BME280;22402;42.746;23.606;2023-07-08T12:38:00;93673.28;;;41.10;29.44
36378;BME280;22402;42.746;23.606;2023-07-08T12:40:28;93664.13;;;41.35;29.38
36378;BME280;22402;42.746;23.606;2023-07-08T12:42:58;93662.13;;;41.44;29.25
36378;BME280;22402;42.746;23.606;2023-07-08T12:45:29;93663.44;;;41.38;28.79
36378;BME280;22402;42.746;23.606;2023-07-08T12:47:56;93659.97;;;40.52;29.56
36378;BME280;22402;42.746;23.606;2023-07-08T12:50:22;93642.34;;;39.02;31.57
36378;BME280;22402;42.746;23.606;2023-07-08T12:52:47;93649.13;;;37.89;32.86
36378;BME280;22402;42.746;23.606;2023-07-08T12:55:14;93643.31;;;38.26;32.83
36378;BME280;22402;42.746;23.606;2023-07-08T12:57:44;93649.91;;;39.23;32.12
36378;BME280;22402;42.746;23.606;2023-07-08T13:00:14;93653.31;;;40.24;31.26
36378;BME280;22402;42.746;23.606;2023-07-08T13:02:45;93662.03;;;41.03;29.49
36378;BME280;22402;42.746;23.606;2023-07-08T13:05:12;93654.47;;;41.59;28.39
36378;BME280;22402;42.746;23.606;2023-07-08T13:07:40;93659.84;;;42.09;27.35
36378;BME280;22402;42.746;23.606;2023-07-08T13:10:13;93670.72;;;42.51;26.04
36378;BME280;22402;42.746;23.606;2023-07-08T13:12:43;93667.53;;;42.28;26.33
36378;BME280;22402;42.746;23.606;2023-07-08T13:15:19;93680.41;;;40.93;27.76
36378;BME280;22402;42.746;23.606;2023-07-08T13:17:46;93668.53;;;39.29;29.18
36378;BME280;22402;42.746;23.606;2023-07-08T13:20:15;93671.81;;;38.29;30.47
36378;BME280;22402;42.746;23.606;2023-07-08T13:22:42;93672.63;;;38.29;30.17
36378;BME280;22402;42.746;23.606;2023-07-08T13:25:15;93671.78;;;37.75;31.65
36378;BME280;22402;42.746;23.606;2023-07-08T13:27:41;93667.09;;;36.89;32.22
36378;BME280;22402;42.746;23.606;2023-07-08T13:30:28;93672.53;;;35.96;34.14
36378;BME280;22402;42.746;23.606;2023-07-08T13:32:58;93666.50;;;35.10;34.57
36378;BME280;22402;42.746;23.606;2023-07-08T13:35:27;93663.59;;;34.29;35.85